createdAt,value
2023-02-11T00:00:58.228Z,0.00
2023-02-11T00:01:57.309Z,0.00
2023-02-11T00:02:57.327Z,0.00
2023-02-11T00:03:58.218Z,0.00
2023-02-11T00:04:57.947Z,0.00
2023-02-11T00:05:58.170Z,0.00
2023-02-11T00:06:58.188Z,0.00
2023-02-11T00:07:57.262Z,0.00
2023-02-11T00:08:57.889Z,0.00
2023-02-11T00:09:57.891Z,0.00
2023-02-11T00:10:57.873Z,0.00
2023-02-11T00:11:57.200Z,0.00
2023-02-11T00:12:58.119Z,0.00
2023-02-11T00:13:57.164Z,0.00
2023-02-11T00:14:57.161Z,0.00
2023-02-11T00:15:57.834Z,0.00
2023-02-11T00:16:57.842Z,0.00
2023-02-11T00:17:57.794Z,0.00
2023-02-11T00:18:57.102Z,0.00
2023-02-11T00:19:57.113Z,0.00
2023-02-11T00:20:57.102Z,0.00
2023-02-11T00:21:57.733Z,0.00
2023-02-11T00:22:57.862Z,0.00
2023-02-11T00:23:57.751Z,0.00
2023-02-11T00:24:57.725Z,0.00
2023-02-11T00:25:58.013Z,0.00
2023-02-11T00:26:57.982Z,0.00
2023-02-11T00:27:57.742Z,0.00
2023-02-11T00:28:57.946Z,0.00
2023-02-11T00:29:57.925Z,0.00
2023-02-11T00:30:57.982Z,0.00
2023-02-11T00:31:58.039Z,0.00
2023-02-11T00:32:57.628Z,0.00
2023-02-11T00:33:57.905Z,0.00
2023-02-11T00:34:57.852Z,0.00
2023-02-11T00:35:57.873Z,0.00
2023-02-11T00:36:57.852Z,0.00
2023-02-11T00:37:57.576Z,0.00
2023-02-11T00:38:57.823Z,0.00
2023-02-11T00:39:57.811Z,0.00
2023-02-11T00:40:57.555Z,0.00
2023-02-11T00:41:57.791Z,0.00
2023-02-11T00:42:57.509Z,0.00
2023-02-11T00:43:57.527Z,0.00
2023-02-11T00:44:57.777Z,0.00
2023-02-11T00:45:57.776Z,0.00
2023-02-11T00:46:57.484Z,0.00
2023-02-11T00:47:57.535Z,0.00
2023-02-11T00:48:57.754Z,0.00
2023-02-11T00:49:57.705Z,0.00
2023-02-11T00:50:57.701Z,0.00
2023-02-11T00:51:57.692Z,0.00
2023-02-11T00:52:59.087Z,0.00
2023-02-11T00:53:56.725Z,0.00
2023-02-11T00:54:57.663Z,0.00
2023-02-11T00:55:57.643Z,0.00
2023-02-11T00:56:57.660Z,0.00
2023-02-11T00:57:57.347Z,0.00
2023-02-11T00:58:57.367Z,0.00
2023-02-11T00:59:57.351Z,0.00
2023-02-11T01:00:56.663Z,0.00
2023-02-11T01:01:56.634Z,0.00
2023-02-11T01:02:57.301Z,0.00
2023-02-11T01:03:57.305Z,0.00
2023-02-11T01:04:57.368Z,0.00
2023-02-11T01:05:57.296Z,0.00
2023-02-11T01:06:56.597Z,0.00
2023-02-11T01:07:57.254Z,0.00
2023-02-11T01:08:57.259Z,0.00
2023-02-11T01:09:56.555Z,0.00
2023-02-11T01:10:58.509Z,0.00
2023-02-11T01:11:56.537Z,0.00
2023-02-11T01:12:57.196Z,0.00
2023-02-11T01:13:57.199Z,0.00
2023-02-11T01:14:57.193Z,0.00
2023-02-11T01:15:57.203Z,0.00
2023-02-11T01:16:57.436Z,0.00
2023-02-11T01:17:57.141Z,0.00
2023-02-11T01:18:56.464Z,0.00
2023-02-11T01:19:57.142Z,0.00
2023-02-11T01:20:57.130Z,0.00
2023-02-11T01:21:57.344Z,0.00
2023-02-11T01:22:58.377Z,0.00
2023-02-11T01:23:57.102Z,0.00
2023-02-11T01:24:56.406Z,0.00
2023-02-11T01:25:57.344Z,0.00
2023-02-11T01:26:57.326Z,0.00
2023-02-11T01:27:57.080Z,0.00
2023-02-11T01:28:57.045Z,0.00
2023-02-11T01:29:57.303Z,0.00
2023-02-11T01:30:57.110Z,0.00
2023-02-11T01:31:57.112Z,0.00
2023-02-11T01:32:56.988Z,0.00
2023-02-11T01:33:57.004Z,0.00
2023-02-11T01:34:56.985Z,0.00
2023-02-11T01:35:56.976Z,0.00
2023-02-11T01:36:56.956Z,0.00
2023-02-11T01:37:56.941Z,0.00
2023-02-11T01:38:56.966Z,0.00
2023-02-11T01:39:56.246Z,0.00
2023-02-11T01:40:56.917Z,0.00
2023-02-11T01:41:56.967Z,0.00
2023-02-11T01:42:56.256Z,0.00
2023-02-11T01:43:56.886Z,0.00
2023-02-11T01:44:57.139Z,0.00
2023-02-11T01:45:57.141Z,0.00
2023-02-11T01:46:57.106Z,0.00
2023-02-11T01:47:56.829Z,0.00
2023-02-11T01:48:56.886Z,0.00
2023-02-11T01:49:56.140Z,0.00
2023-02-11T01:50:56.810Z,0.00
2023-02-11T01:51:56.814Z,0.00
2023-02-11T01:52:56.128Z,0.00
2023-02-11T01:53:56.101Z,0.00
2023-02-11T01:54:56.089Z,0.00
2023-02-11T01:55:56.793Z,0.00
2023-02-11T01:56:56.755Z,0.00
2023-02-11T01:57:56.729Z,0.00
2023-02-11T01:58:56.730Z,0.00
2023-02-11T01:59:57.980Z,0.00
2023-02-11T02:00:56.712Z,0.00
2023-02-11T02:01:56.744Z,0.00
2023-02-11T02:02:56.838Z,0.00
2023-02-11T02:03:56.757Z,0.00
2023-02-11T02:04:56.518Z,0.00
2023-02-11T02:05:55.975Z,0.00
2023-02-11T02:06:57.411Z,0.00
2023-02-11T02:07:56.863Z,0.00
2023-02-11T02:08:56.604Z,0.00
2023-02-11T02:09:56.614Z,0.00
2023-02-11T02:10:56.699Z,0.00
2023-02-11T02:11:56.591Z,0.00
2023-02-11T02:12:56.581Z,0.00
2023-02-11T02:13:56.840Z,0.00
2023-02-11T02:14:55.881Z,0.00
2023-02-11T02:15:57.833Z,0.00
2023-02-11T02:16:56.781Z,0.00
2023-02-11T02:17:55.847Z,0.00
2023-02-11T02:18:55.862Z,0.00
2023-02-11T02:19:56.509Z,0.00
2023-02-11T02:20:56.750Z,0.00
2023-02-11T02:21:55.804Z,0.00
2023-02-11T02:22:55.795Z,0.00
2023-02-11T02:23:56.743Z,0.00
2023-02-11T02:24:55.761Z,0.00
2023-02-11T02:25:56.451Z,0.00
2023-02-11T02:26:56.692Z,0.00
2023-02-11T02:27:56.446Z,0.00
2023-02-11T02:28:55.733Z,0.00
2023-02-11T02:29:56.649Z,0.00
2023-02-11T02:30:55.803Z,0.00
2023-02-11T02:31:55.699Z,0.00
2023-02-11T02:32:56.550Z,0.00
2023-02-11T02:33:56.334Z,0.00
2023-02-11T02:34:56.364Z,0.00
2023-02-11T02:35:56.582Z,0.00
2023-02-11T02:36:55.633Z,0.00
2023-02-11T02:37:56.313Z,0.00
2023-02-11T02:38:56.571Z,0.00
2023-02-11T02:39:55.593Z,0.00
2023-02-11T02:40:56.272Z,0.00
2023-02-11T02:41:56.264Z,0.00
2023-02-11T02:42:56.252Z,0.00
2023-02-11T02:43:56.231Z,0.00
2023-02-11T02:44:56.236Z,0.00
2023-02-11T02:45:57.485Z,0.00
2023-02-11T02:46:55.547Z,0.00
2023-02-11T02:47:56.207Z,0.00
2023-02-11T02:48:56.175Z,0.00
2023-02-11T02:49:55.486Z,0.00
2023-02-11T02:50:56.178Z,0.00
2023-02-11T02:51:56.447Z,0.00
2023-02-11T02:52:55.466Z,0.00
2023-02-11T02:53:56.129Z,0.00
2023-02-11T02:54:56.381Z,0.00
2023-02-11T02:55:55.451Z,0.00
2023-02-11T02:56:56.111Z,0.00
2023-02-11T02:57:55.416Z,0.00
2023-02-11T02:58:55.415Z,0.00
2023-02-11T02:59:55.408Z,0.00
2023-02-11T03:00:56.176Z,0.00
2023-02-11T03:01:55.372Z,0.00
2023-02-11T03:02:55.362Z,0.00
2023-02-11T03:03:56.109Z,0.00
2023-02-11T03:04:56.033Z,0.00
2023-02-11T03:05:55.337Z,0.00
2023-02-11T03:06:56.007Z,0.00
2023-02-11T03:07:56.242Z,0.00
2023-02-11T03:08:55.966Z,0.00
2023-02-11T03:09:55.290Z,0.00
2023-02-11T03:10:55.966Z,0.00
2023-02-11T03:11:55.421Z,0.00
2023-02-11T03:12:55.943Z,0.00
2023-02-11T03:13:55.264Z,0.00
2023-02-11T03:14:55.920Z,0.00
2023-02-11T03:15:55.370Z,0.00
2023-02-11T03:16:55.894Z,0.00
2023-02-11T03:17:55.883Z,0.00
2023-02-11T03:18:55.855Z,0.00
2023-02-11T03:19:55.868Z,0.00
2023-02-11T03:20:55.173Z,0.00
2023-02-11T03:21:55.852Z,0.00
2023-02-11T03:22:56.081Z,0.00
2023-02-11T03:23:55.805Z,0.00
2023-02-11T03:24:55.816Z,0.00
2023-02-11T03:25:55.807Z,0.00
2023-02-11T03:26:55.785Z,0.00
2023-02-11T03:27:55.149Z,0.00
2023-02-11T03:28:55.114Z,0.00
2023-02-11T03:29:56.026Z,0.00
2023-02-11T03:30:55.766Z,0.00
2023-02-11T03:31:56.001Z,0.00
2023-02-11T03:32:55.725Z,0.00
2023-02-11T03:33:55.696Z,0.00
2023-02-11T03:34:55.705Z,0.00
2023-02-11T03:35:55.961Z,0.00
2023-02-11T03:36:55.684Z,0.00
2023-02-11T03:37:54.991Z,0.00
2023-02-11T03:38:55.937Z,0.00
2023-02-11T03:39:55.650Z,0.00
2023-02-11T03:40:54.957Z,0.00
2023-02-11T03:41:56.359Z,0.00
2023-02-11T03:42:55.631Z,0.00
2023-02-11T03:43:55.589Z,0.00
2023-02-11T03:44:55.603Z,0.00
2023-02-11T03:45:55.643Z,0.00
2023-02-11T03:46:55.579Z,0.00
2023-02-11T03:47:55.842Z,0.00
2023-02-11T03:48:55.545Z,0.00
2023-02-11T03:49:54.856Z,0.00
2023-02-11T03:50:55.533Z,0.00
2023-02-11T03:51:55.521Z,0.00
2023-02-11T03:52:55.514Z,0.00
2023-02-11T03:53:55.495Z,0.00
2023-02-11T03:54:55.747Z,0.00
2023-02-11T03:55:55.480Z,0.00
2023-02-11T03:56:55.755Z,0.00
2023-02-11T03:57:55.449Z,0.00
2023-02-11T03:58:55.723Z,0.00
2023-02-11T03:59:55.437Z,0.00
2023-02-11T04:00:56.261Z,0.00
2023-02-11T04:01:55.411Z,0.00
2023-02-11T04:02:55.466Z,0.00
2023-02-11T04:03:55.682Z,0.00
2023-02-11T04:04:55.648Z,0.00
2023-02-11T04:05:55.634Z,0.00
2023-02-11T04:06:55.632Z,0.00
2023-02-11T04:07:55.607Z,0.00
2023-02-11T04:08:55.636Z,0.00
2023-02-11T04:09:54.661Z,0.00
2023-02-11T04:10:54.623Z,0.00
2023-02-11T04:11:55.315Z,0.00
2023-02-11T04:12:55.302Z,0.00
2023-02-11T04:13:54.593Z,0.00
2023-02-11T04:14:54.615Z,0.00
2023-02-11T04:15:55.299Z,0.00
2023-02-11T04:16:55.247Z,0.00
2023-02-11T04:17:55.712Z,0.00
2023-02-11T04:18:55.224Z,0.00
2023-02-11T04:19:55.198Z,0.00
2023-02-11T04:20:55.204Z,0.00
2023-02-11T04:21:55.195Z,0.00
2023-02-11T04:22:55.456Z,0.00
2023-02-11T04:23:55.177Z,0.00
2023-02-11T04:24:55.145Z,0.00
2023-02-11T04:25:55.436Z,0.00
2023-02-11T04:26:55.407Z,0.00
2023-02-11T04:27:55.252Z,0.00
2023-02-11T04:28:55.123Z,0.00
2023-02-11T04:29:55.388Z,0.00
2023-02-11T04:30:55.154Z,0.00
2023-02-11T04:31:55.099Z,0.00
2023-02-11T04:32:54.427Z,0.00
2023-02-11T04:33:55.069Z,0.00
2023-02-11T04:34:55.041Z,0.00
2023-02-11T04:35:54.362Z,0.00
2023-02-11T04:36:55.037Z,0.00
2023-02-11T04:37:54.348Z,0.00
2023-02-11T04:38:55.017Z,0.00
2023-02-11T04:39:55.283Z,0.00
2023-02-11T04:40:54.999Z,0.00
2023-02-11T04:41:55.260Z,0.00
2023-02-11T04:42:54.970Z,0.00
2023-02-11T04:43:54.962Z,0.00
2023-02-11T04:44:55.224Z,0.00
2023-02-11T04:45:55.216Z,0.00
2023-02-11T04:46:54.937Z,0.00
2023-02-11T04:47:55.171Z,0.00
2023-02-11T04:48:54.911Z,0.00
2023-02-11T04:49:54.891Z,0.00
2023-02-11T04:50:54.890Z,0.00
2023-02-11T04:51:54.877Z,0.00
2023-02-11T04:52:55.123Z,0.00
2023-02-11T04:53:54.864Z,0.00
2023-02-11T04:54:54.843Z,0.00
2023-02-11T04:55:55.085Z,0.00
2023-02-11T04:56:56.074Z,0.00
2023-02-11T04:57:55.068Z,0.00
2023-02-11T04:58:54.802Z,0.00
2023-02-11T04:59:54.792Z,0.00
2023-02-11T05:00:55.084Z,0.00
2023-02-11T05:01:55.012Z,0.00
2023-02-11T05:02:55.029Z,0.00
2023-02-11T05:03:54.826Z,0.00
2023-02-11T05:04:54.998Z,0.00
2023-02-11T05:05:55.057Z,0.00
2023-02-11T05:06:54.044Z,0.00
2023-02-11T05:07:54.707Z,0.00
2023-02-11T05:08:54.704Z,0.00
2023-02-11T05:09:54.688Z,0.00
2023-02-11T05:10:54.662Z,0.00
2023-02-11T05:11:54.658Z,0.00
2023-02-11T05:12:55.970Z,0.00
2023-02-11T05:13:54.653Z,0.00
2023-02-11T05:14:54.894Z,0.00
2023-02-11T05:15:54.866Z,0.00
2023-02-11T05:16:54.708Z,0.00
2023-02-11T05:17:54.595Z,0.00
2023-02-11T05:18:54.584Z,0.00
2023-02-11T05:19:54.577Z,0.00
2023-02-11T05:20:53.909Z,0.00
2023-02-11T05:22:02.495Z,0.00
2023-02-11T05:22:55.549Z,0.00
2023-02-11T05:23:54.572Z,0.00
2023-02-11T05:24:53.953Z,0.00
2023-02-11T05:25:53.865Z,0.00
2023-02-11T05:26:54.550Z,0.00
2023-02-11T05:27:54.843Z,0.00
2023-02-11T05:28:54.490Z,0.00
2023-02-11T05:29:53.791Z,0.00
2023-02-11T05:30:53.812Z,0.00
2023-02-11T05:31:54.448Z,0.00
2023-02-11T05:32:54.437Z,0.00
2023-02-11T05:33:54.429Z,0.00
2023-02-11T05:34:53.729Z,0.00
2023-02-11T05:35:54.389Z,0.00
2023-02-11T05:36:53.729Z,0.00
2023-02-11T05:37:54.654Z,0.00
2023-02-11T05:38:54.384Z,0.00
2023-02-11T05:39:54.361Z,0.00
2023-02-11T05:40:54.333Z,0.00
2023-02-11T05:41:53.681Z,0.00
2023-02-11T05:42:53.634Z,0.00
2023-02-11T05:43:54.323Z,0.00
2023-02-11T05:44:54.330Z,0.00
2023-02-11T05:45:54.627Z,0.00
2023-02-11T05:46:53.592Z,0.00
2023-02-11T05:47:53.753Z,0.00
2023-02-11T05:48:54.262Z,0.00
2023-02-11T05:49:54.255Z,0.00
2023-02-11T05:50:54.252Z,0.00
2023-02-11T05:51:54.242Z,0.00
2023-02-11T05:52:54.240Z,0.00
2023-02-11T05:53:53.540Z,0.00
2023-02-11T05:54:54.204Z,0.00
2023-02-11T05:55:53.579Z,0.00
2023-02-11T05:56:54.180Z,0.00
2023-02-11T05:57:54.166Z,0.00
2023-02-11T05:58:53.473Z,0.00
2023-02-11T05:59:53.482Z,0.00
2023-02-11T06:00:53.476Z,0.00
2023-02-11T06:01:53.444Z,0.00
2023-02-11T06:02:54.145Z,0.00
2023-02-11T06:03:54.162Z,0.00
2023-02-11T06:04:53.416Z,0.00
2023-02-11T06:05:54.084Z,0.00
2023-02-11T06:06:54.066Z,0.00
2023-02-11T06:07:54.102Z,0.00
2023-02-11T06:08:53.361Z,0.00
2023-02-11T06:09:54.049Z,0.00
2023-02-11T06:10:53.365Z,0.00
2023-02-11T06:11:53.366Z,0.00
2023-02-11T06:12:53.338Z,0.00
2023-02-11T06:13:54.007Z,0.00
2023-02-11T06:14:53.989Z,0.00
2023-02-11T06:15:53.563Z,0.00
2023-02-11T06:16:53.300Z,0.00
2023-02-11T06:17:53.969Z,0.00
2023-02-11T06:18:53.947Z,0.00
2023-02-11T06:19:53.938Z,0.00
2023-02-11T06:20:53.924Z,0.00
2023-02-11T06:21:53.899Z,0.00
2023-02-11T06:22:53.228Z,0.00
2023-02-11T06:23:53.908Z,0.00
2023-02-11T06:25:01.253Z,0.00
2023-02-11T06:25:54.869Z,0.00
2023-02-11T06:26:54.138Z,0.00
2023-02-11T06:27:53.160Z,0.00
2023-02-11T06:28:53.842Z,0.00
2023-02-11T06:29:54.074Z,0.00
2023-02-11T06:30:53.236Z,0.00
2023-02-11T06:31:53.919Z,0.00
2023-02-11T06:32:53.868Z,0.00
2023-02-11T06:33:53.095Z,0.00
2023-02-11T06:34:53.782Z,0.00
2023-02-11T06:35:53.760Z,0.00
2023-02-11T06:36:53.735Z,0.00
2023-02-11T06:37:53.740Z,0.00
2023-02-11T06:38:53.045Z,0.00
2023-02-11T06:39:53.039Z,0.00
2023-02-11T06:40:53.718Z,0.00
2023-02-11T06:41:53.032Z,0.00
2023-02-11T06:42:53.689Z,0.00
2023-02-11T06:43:53.672Z,0.00
2023-02-11T06:44:53.679Z,0.00
2023-02-11T06:45:53.655Z,0.00
2023-02-11T06:46:53.678Z,0.00
2023-02-11T06:47:53.639Z,0.00
2023-02-11T06:48:53.623Z,0.00
2023-02-11T06:49:53.613Z,0.00
2023-02-11T06:50:53.602Z,0.00
2023-02-11T06:51:53.588Z,0.00
2023-02-11T06:52:52.916Z,0.00
2023-02-11T06:53:52.917Z,0.00
2023-02-11T06:54:53.563Z,0.00
2023-02-11T06:55:53.556Z,0.00
2023-02-11T06:56:53.516Z,0.00
2023-02-11T06:57:52.862Z,0.00
2023-02-11T06:58:52.835Z,0.00
2023-02-11T06:59:53.506Z,0.00
2023-02-11T07:00:53.499Z,0.00
2023-02-11T07:01:53.506Z,0.00
2023-02-11T07:02:53.503Z,0.00
2023-02-11T07:03:53.466Z,0.00
2023-02-11T07:04:53.457Z,0.00
2023-02-11T07:05:53.515Z,0.00
2023-02-11T07:06:53.430Z,0.00
2023-02-11T07:07:53.425Z,0.00
2023-02-11T07:08:52.735Z,0.00
2023-02-11T07:09:52.728Z,0.00
2023-02-11T07:10:53.413Z,0.00
2023-02-11T07:11:53.365Z,5.62
2023-02-11T07:12:53.358Z,5.62
2023-02-11T07:13:53.356Z,5.62
2023-02-11T07:14:52.649Z,5.62
2023-02-11T07:15:53.640Z,5.62
2023-02-11T07:16:52.667Z,5.62
2023-02-11T07:17:53.339Z,5.62
2023-02-11T07:18:53.300Z,5.62
2023-02-11T07:19:52.642Z,5.62
2023-02-11T07:20:52.614Z,5.62
2023-02-11T07:21:52.600Z,5.62
2023-02-11T07:22:53.261Z,5.62
2023-02-11T07:23:53.263Z,5.62
2023-02-11T07:24:53.244Z,5.62
2023-02-11T07:25:53.221Z,5.62
2023-02-11T07:26:52.541Z,5.62
2023-02-11T07:27:53.218Z,5.62
2023-02-11T07:28:53.193Z,11.25
2023-02-11T07:29:53.185Z,11.25
2023-02-11T07:30:53.217Z,11.25
2023-02-11T07:31:53.171Z,11.25
2023-02-11T07:32:52.474Z,11.25
2023-02-11T07:33:53.141Z,11.25
2023-02-11T07:34:53.214Z,11.25
2023-02-11T07:35:52.691Z,11.25
2023-02-11T07:36:53.084Z,11.25
2023-02-11T07:37:53.095Z,11.25
2023-02-11T07:38:53.084Z,16.88
2023-02-11T07:39:53.082Z,16.88
2023-02-11T07:40:53.079Z,16.88
2023-02-11T07:41:52.380Z,16.88
2023-02-11T07:42:53.054Z,16.88
2023-02-11T07:43:52.346Z,16.88
2023-02-11T07:44:52.367Z,16.88
2023-02-11T07:45:53.037Z,16.88
2023-02-11T07:46:53.022Z,16.88
2023-02-11T07:47:52.985Z,16.88
2023-02-11T07:48:52.295Z,16.88
2023-02-11T07:49:56.151Z,16.88
2023-02-11T07:50:53.205Z,22.50
2023-02-11T07:51:52.924Z,22.50
2023-02-11T07:52:52.965Z,22.50
2023-02-11T07:53:52.258Z,22.50
2023-02-11T07:54:52.214Z,16.88
2023-02-11T07:55:52.449Z,22.50
2023-02-11T07:56:52.878Z,22.50
2023-02-11T07:57:52.879Z,22.50
2023-02-11T07:58:52.865Z,22.50
2023-02-11T07:59:52.175Z,22.50
2023-02-11T08:00:52.204Z,22.50
2023-02-11T08:01:52.849Z,28.12
2023-02-11T08:02:52.862Z,28.12
2023-02-11T08:03:52.826Z,22.50
2023-02-11T08:04:52.121Z,28.12
2023-02-11T08:05:53.008Z,28.12
2023-02-11T08:06:52.789Z,28.12
2023-02-11T08:07:52.093Z,28.12
2023-02-11T08:08:52.076Z,33.75
2023-02-11T08:09:52.050Z,33.75
2023-02-11T08:10:52.938Z,33.75
2023-02-11T08:11:52.715Z,33.75
2023-02-11T08:12:52.722Z,33.75
2023-02-11T08:13:52.697Z,33.75
2023-02-11T08:14:52.690Z,33.75
2023-02-11T08:15:52.349Z,33.75
2023-02-11T08:16:52.693Z,28.12
2023-02-11T08:17:52.659Z,33.75
2023-02-11T08:18:52.657Z,39.38
2023-02-11T08:19:52.636Z,39.38
2023-02-11T08:20:53.149Z,39.38
2023-02-11T08:21:53.880Z,39.38
2023-02-11T08:22:52.614Z,33.75
2023-02-11T08:23:52.626Z,33.75
2023-02-11T08:24:52.507Z,45.00
2023-02-11T08:25:52.573Z,45.00
2023-02-11T08:26:52.549Z,45.00
2023-02-11T08:27:51.890Z,45.00
2023-02-11T08:28:51.872Z,39.38
2023-02-11T08:29:52.540Z,45.00
2023-02-11T08:30:52.269Z,45.00
2023-02-11T08:31:52.540Z,45.00
2023-02-11T08:32:51.948Z,50.62
2023-02-11T08:33:52.622Z,45.00
2023-02-11T08:34:52.132Z,50.62
2023-02-11T08:35:51.769Z,56.25
2023-02-11T08:36:51.777Z,56.25
2023-02-11T08:37:51.796Z,50.62
2023-02-11T08:38:51.758Z,50.62
2023-02-11T08:39:52.690Z,56.25
2023-02-11T08:40:52.625Z,56.25
2023-02-11T08:41:51.755Z,50.62
2023-02-11T08:42:52.666Z,45.00
2023-02-11T08:43:52.399Z,50.62
2023-02-11T08:44:52.638Z,56.25
2023-02-11T08:45:52.141Z,56.25
2023-02-11T08:46:52.377Z,61.88
2023-02-11T08:47:52.386Z,61.88
2023-02-11T08:48:51.759Z,56.25
2023-02-11T08:49:52.310Z,50.62
2023-02-11T08:50:51.643Z,56.25
2023-02-11T08:51:52.880Z,56.25
2023-02-11T08:52:52.400Z,67.50
2023-02-11T08:53:52.366Z,61.88
2023-02-11T08:54:52.538Z,56.25
2023-02-11T08:55:53.623Z,56.25
2023-02-11T08:56:52.279Z,61.88
2023-02-11T08:57:52.217Z,61.88
2023-02-11T08:58:51.598Z,61.88
2023-02-11T08:59:51.848Z,50.62
2023-02-11T09:00:52.680Z,50.62
2023-02-11T09:01:52.549Z,45.00
2023-02-11T09:02:52.134Z,45.00
2023-02-11T09:03:52.165Z,45.00
2023-02-11T09:04:52.376Z,50.62
2023-02-11T09:05:52.150Z,50.62
2023-02-11T09:06:52.124Z,56.25
2023-02-11T09:07:52.104Z,56.25
2023-02-11T09:08:52.127Z,61.88
2023-02-11T09:09:51.425Z,56.25
2023-02-11T09:10:52.417Z,56.25
2023-02-11T09:11:52.075Z,56.25
2023-02-11T09:12:51.805Z,56.25
2023-02-11T09:13:54.172Z,56.25
2023-02-11T09:14:52.213Z,61.88
2023-02-11T09:15:52.051Z,56.25
2023-02-11T09:16:52.216Z,56.25
2023-02-11T09:17:51.481Z,56.25
2023-02-11T09:18:51.425Z,56.25
2023-02-11T09:19:51.740Z,73.12
2023-02-11T09:20:52.265Z,73.12
2023-02-11T09:21:51.370Z,61.88
2023-02-11T09:22:51.428Z,56.25
2023-02-11T09:23:51.280Z,56.25
2023-02-11T09:24:51.410Z,56.25
2023-02-11T09:25:52.333Z,61.88
2023-02-11T09:26:52.294Z,61.88
2023-02-11T09:27:52.771Z,67.50
2023-02-11T09:28:52.891Z,61.88
2023-02-11T09:29:51.325Z,61.88
2023-02-11T09:30:51.940Z,56.25
2023-02-11T09:31:51.502Z,56.25
2023-02-11T09:32:51.366Z,50.62
2023-02-11T09:33:53.341Z,56.25
2023-02-11T09:34:52.134Z,61.88
2023-02-11T09:35:51.675Z,67.50
2023-02-11T09:36:51.652Z,67.50
2023-02-11T09:37:56.996Z,73.12
2023-02-11T09:38:51.449Z,67.50
2023-02-11T09:39:52.144Z,67.50
2023-02-11T09:40:52.057Z,61.88
2023-02-11T09:41:51.769Z,61.88
2023-02-11T09:42:51.738Z,61.88
2023-02-11T09:43:53.645Z,61.88
2023-02-11T09:44:51.083Z,73.12
2023-02-11T09:45:51.745Z,78.75
2023-02-11T09:46:51.724Z,95.62
2023-02-11T09:47:51.034Z,95.62
2023-02-11T09:48:51.683Z,90.00
2023-02-11T09:49:51.704Z,84.38
2023-02-11T09:50:51.951Z,67.50
2023-02-11T09:51:51.945Z,61.88
2023-02-11T09:52:51.632Z,50.62
2023-02-11T09:53:51.637Z,45.00
2023-02-11T09:54:51.116Z,50.62
2023-02-11T09:55:51.617Z,50.62
2023-02-11T09:56:51.606Z,56.25
2023-02-11T09:57:51.887Z,61.88
2023-02-11T09:58:50.909Z,67.50
2023-02-11T09:59:50.887Z,67.50
2023-02-11T10:00:51.802Z,61.88
2023-02-11T10:01:51.585Z,56.25
2023-02-11T10:02:50.891Z,50.62
2023-02-11T10:03:51.549Z,45.00
2023-02-11T10:04:51.525Z,50.62
2023-02-11T10:05:51.792Z,45.00
2023-02-11T10:06:51.733Z,45.00
2023-02-11T10:07:51.498Z,45.00
2023-02-11T10:08:51.737Z,50.62
2023-02-11T10:09:51.724Z,61.88
2023-02-11T10:10:51.701Z,67.50
2023-02-11T10:11:51.703Z,56.25
2023-02-11T10:12:51.676Z,50.62
2023-02-11T10:13:51.687Z,45.00
2023-02-11T10:14:50.730Z,50.62
2023-02-11T10:15:51.429Z,73.12
2023-02-11T10:16:51.401Z,78.75
2023-02-11T10:17:50.705Z,78.75
2023-02-11T10:18:51.355Z,67.50
2023-02-11T10:19:51.633Z,61.88
2023-02-11T10:20:50.906Z,56.25
2023-02-11T10:21:51.337Z,61.88
2023-02-11T10:22:51.588Z,67.50
2023-02-11T10:23:51.699Z,73.12
2023-02-11T10:24:50.625Z,67.50
2023-02-11T10:25:51.559Z,61.88
2023-02-11T10:26:50.599Z,61.88
2023-02-11T10:27:50.617Z,61.88
2023-02-11T10:28:51.247Z,73.12
2023-02-11T10:29:50.578Z,73.12
2023-02-11T10:30:51.693Z,61.88
2023-02-11T10:31:51.564Z,67.50
2023-02-11T10:32:50.537Z,67.50
2023-02-11T10:33:51.188Z,73.12
2023-02-11T10:34:51.459Z,67.50
2023-02-11T10:35:51.190Z,67.50
2023-02-11T10:36:51.178Z,67.50
2023-02-11T10:37:51.228Z,73.12
2023-02-11T10:38:51.137Z,67.50
2023-02-11T10:39:51.390Z,67.50
2023-02-11T10:40:51.412Z,67.50
2023-02-11T10:41:51.129Z,67.50
2023-02-11T10:42:53.068Z,78.75
2023-02-11T10:43:51.871Z,73.12
2023-02-11T10:44:51.090Z,67.50
2023-02-11T10:45:50.389Z,73.12
2023-02-11T10:46:51.091Z,73.12
2023-02-11T10:47:51.321Z,78.75
2023-02-11T10:48:51.032Z,78.75
2023-02-11T10:49:51.300Z,78.75
2023-02-11T10:50:51.351Z,84.38
2023-02-11T10:51:51.081Z,90.00
2023-02-11T10:52:50.643Z,95.62
2023-02-11T10:53:51.623Z,90.00
2023-02-11T10:54:51.497Z,84.38
2023-02-11T10:55:51.040Z,84.38
2023-02-11T10:56:50.958Z,84.38
2023-02-11T10:57:50.488Z,90.00
2023-02-11T10:58:50.914Z,95.62
2023-02-11T10:59:52.184Z,95.62
2023-02-11T11:00:50.566Z,90.00
2023-02-11T11:01:50.305Z,95.62
2023-02-11T11:02:50.893Z,95.62
2023-02-11T11:03:50.866Z,90.00
2023-02-11T11:04:51.118Z,90.00
2023-02-11T11:05:51.662Z,95.62
2023-02-11T11:06:50.177Z,101.25
2023-02-11T11:07:51.119Z,101.25
2023-02-11T11:08:50.592Z,106.88
2023-02-11T11:09:50.910Z,118.12
2023-02-11T11:10:50.514Z,118.12
2023-02-11T11:11:51.076Z,112.50
2023-02-11T11:12:50.103Z,106.88
2023-02-11T11:13:50.748Z,106.88
2023-02-11T11:14:50.765Z,118.12
2023-02-11T11:15:51.112Z,106.88
2023-02-11T11:16:51.017Z,101.25
2023-02-11T11:17:50.200Z,101.25
2023-02-11T11:18:50.698Z,106.88
2023-02-11T11:19:50.029Z,101.25
2023-02-11T11:20:50.992Z,101.25
2023-02-11T11:21:50.290Z,101.25
2023-02-11T11:22:51.930Z,95.62
2023-02-11T11:23:50.657Z,84.38
2023-02-11T11:24:50.652Z,90.00
2023-02-11T11:25:50.768Z,84.38
2023-02-11T11:26:50.040Z,78.75
2023-02-11T11:27:50.635Z,73.12
2023-02-11T11:28:50.594Z,78.75
2023-02-11T11:29:52.780Z,73.12
2023-02-11T11:30:50.266Z,78.75
2023-02-11T11:31:49.952Z,84.38
2023-02-11T11:32:50.585Z,73.12
2023-02-11T11:33:50.540Z,56.25
2023-02-11T11:34:50.544Z,56.25
2023-02-11T11:35:51.201Z,61.88
2023-02-11T11:36:50.522Z,61.88
2023-02-11T11:37:50.511Z,61.88
2023-02-11T11:38:50.499Z,67.50
2023-02-11T11:39:50.489Z,67.50
2023-02-11T11:40:50.111Z,78.75
2023-02-11T11:41:50.463Z,73.12
2023-02-11T11:42:50.461Z,90.00
2023-02-11T11:43:50.432Z,101.25
2023-02-11T11:44:49.762Z,95.62
2023-02-11T11:45:50.435Z,112.50
2023-02-11T11:46:50.712Z,129.38
2023-02-11T11:47:49.829Z,112.50
2023-02-11T11:48:50.369Z,95.62
2023-02-11T11:49:50.378Z,101.25
2023-02-11T11:50:50.958Z,101.25
2023-02-11T11:51:49.686Z,106.88
2023-02-11T11:52:50.348Z,101.25
2023-02-11T11:53:50.628Z,101.25
2023-02-11T11:54:49.648Z,106.88
2023-02-11T11:55:49.656Z,123.75
2023-02-11T11:56:50.558Z,123.75
2023-02-11T11:57:50.293Z,112.50
2023-02-11T11:58:50.275Z,112.50
2023-02-11T11:59:50.269Z,123.75
2023-02-11T12:00:50.812Z,129.38
2023-02-11T12:01:49.595Z,129.38
2023-02-11T12:02:50.292Z,135.00
2023-02-11T12:03:50.508Z,129.38
2023-02-11T12:04:50.229Z,123.75
2023-02-11T12:05:50.211Z,112.50
2023-02-11T12:06:50.460Z,129.38
2023-02-11T12:07:49.501Z,135.00
2023-02-11T12:08:50.164Z,146.25
2023-02-11T12:09:50.166Z,146.25
2023-02-11T12:10:49.752Z,151.88
2023-02-11T12:11:50.142Z,157.50
2023-02-11T12:12:51.392Z,163.12
2023-02-11T12:13:50.409Z,163.12
2023-02-11T12:14:50.111Z,146.25
2023-02-11T12:15:50.361Z,129.38
2023-02-11T12:16:50.179Z,129.38
2023-02-11T12:17:49.398Z,140.62
2023-02-11T12:18:50.070Z,157.50
2023-02-11T12:19:50.324Z,163.12
2023-02-11T12:20:50.353Z,157.50
2023-02-11T12:21:50.051Z,146.25
2023-02-11T12:22:49.365Z,129.38
2023-02-11T12:23:49.356Z,146.25
2023-02-11T12:24:50.274Z,163.12
2023-02-11T12:25:49.335Z,163.12
2023-02-11T12:26:49.994Z,157.50
2023-02-11T12:27:50.226Z,151.88
2023-02-11T12:28:49.283Z,146.25
2023-02-11T12:29:49.955Z,146.25
2023-02-11T12:30:50.602Z,157.50
2023-02-11T12:31:50.219Z,163.12
2023-02-11T12:32:49.919Z,151.88
2023-02-11T12:33:50.178Z,151.88
2023-02-11T12:34:49.894Z,151.88
2023-02-11T12:35:51.149Z,146.25
2023-02-11T12:36:50.149Z,123.75
2023-02-11T12:37:50.119Z,135.00
2023-02-11T12:38:49.856Z,129.38
2023-02-11T12:39:49.182Z,129.38
2023-02-11T12:40:50.387Z,146.25
2023-02-11T12:41:50.836Z,135.00
2023-02-11T12:42:50.066Z,140.62
2023-02-11T12:43:50.068Z,118.12
2023-02-11T12:44:49.131Z,123.75
2023-02-11T12:45:49.799Z,123.75
2023-02-11T12:46:49.090Z,135.00
2023-02-11T12:47:49.100Z,146.25
2023-02-11T12:48:50.011Z,146.25
2023-02-11T12:49:50.012Z,140.62
2023-02-11T12:50:50.370Z,123.75
2023-02-11T12:51:49.032Z,112.50
2023-02-11T12:52:49.042Z,112.50
2023-02-11T12:53:49.693Z,106.88
2023-02-11T12:54:49.964Z,112.50
2023-02-11T12:55:49.943Z,129.38
2023-02-11T12:56:49.285Z,123.75
2023-02-11T12:57:49.644Z,129.38
2023-02-11T12:58:49.654Z,118.12
2023-02-11T12:59:49.804Z,123.75
2023-02-11T13:00:50.120Z,118.12
2023-02-11T13:01:48.936Z,106.88
2023-02-11T13:02:49.462Z,95.62
2023-02-11T13:03:52.269Z,95.62
2023-02-11T13:04:49.897Z,90.00